sensor_id;sensor_type;location;lat;lon;timestamp;pressure;altitude;pressure_sealevel;temperature;humidity
37298;BME280;30517;51.932;4.278;2023-02-20T00:00:37;141449.13;;;38.59;0.00
37298;BME280;30517;51.932;4.278;2023-02-20T00:03:18;141037.28;;;38.67;0.00
37298;BME280;30517;51.932;4.278;2023-02-20T00:05:58;141050.72;;;38.67;0.00
37298;BME280;30517;51.932;4.278;2023-02-20T00:08:39;141078.56;;;38.66;0.00
37298;BME280;30517;51.932;4.278;2023-02-20T00:11:20;141209.91;;;38.63;0.00
37298;BME280;30517;51.932;4.278;2023-02-20T00:14:01;141153.34;;;38.64;0.00
37298;BME280;30517;51.932;4.278;2023-02-20T00:16:45;141099.81;;;38.65;0.00
37298;BME280;30517;51.932;4.278;2023-02-20T00:19:26;141372.59;;;38.60;0.00
37298;BME280;30517;51.932;4.278;2023-02-20T00:22:07;141203.22;;;38.63;0.00
37298;BME280;30517;51.932;4.278;2023-02-20T00:24:48;141551.50;;;38.56;0.00
37298;BME280;30517;51.932;4.278;2023-02-20T00:27:29;141113.25;;;38.64;0.00
37298;BME280;30517;51.932;4.278;2023-02-20T00:30:16;141133.38;;;38.64;0.00
37298;BME280;30517;51.932;4.278;2023-02-20T00:32:58;141183.22;;;38.63;0.00
37298;BME280;30517;51.932;4.278;2023-02-20T00:35:39;141136.38;;;38.63;0.00
37298;BME280;30517;51.932;4.278;2023-02-20T00:38:20;141841.75;;;38.48;0.00
37298;BME280;30517;51.932;4.278;2023-02-20T00:41:01;141238.81;;;38.61;0.00
37298;BME280;30517;51.932;4.278;2023-02-20T00:43:42;141252.25;;;38.61;0.00
37298;BME280;30517;51.932;4.278;2023-02-20T00:46:22;141622.25;;;38.53;0.00
37298;BME280;30517;51.932;4.278;2023-02-20T00:49:03;141252.19;;;38.61;0.00
37298;BME280;30517;51.932;4.278;2023-02-20T00:51:44;141211.03;;;38.62;0.00
37298;BME280;30517;51.932;4.278;2023-02-20T00:54:25;141292.41;;;38.60;0.00
37298;BME280;30517;51.932;4.278;2023-02-20T00:57:06;141498.03;;;38.56;0.00
37298;BME280;30517;51.932;4.278;2023-02-20T00:59:47;141355.56;;;38.58;0.00
37298;BME280;30517;51.932;4.278;2023-02-20T01:02:28;141335.53;;;38.58;0.00
37298;BME280;30517;51.932;4.278;2023-02-20T01:05:08;141274.34;;;38.59;0.00
37298;BME280;30517;51.932;4.278;2023-02-20T01:07:49;141431.16;;;38.56;0.00
37298;BME280;30517;51.932;4.278;2023-02-20T01:10:30;141281.00;;;38.59;0.00
37298;BME280;30517;51.932;4.278;2023-02-20T01:13:11;141288.69;;;38.59;0.00
37298;BME280;30517;51.932;4.278;2023-02-20T01:15:51;141232.22;;;38.60;0.00
37298;BME280;30517;51.932;4.278;2023-02-20T01:18:32;141295.41;;;38.58;0.00
37298;BME280;30517;51.932;4.278;2023-02-20T01:21:13;141260.97;;;38.59;0.00
37298;BME280;30517;51.932;4.278;2023-02-20T01:23:54;141274.34;;;38.59;0.00
37298;BME280;30517;51.932;4.278;2023-02-20T01:26:35;141172.00;;;38.61;0.00
37298;BME280;30517;51.932;4.278;2023-02-20T01:29:16;141185.38;;;38.61;0.00
37298;BME280;30517;51.932;4.278;2023-02-20T01:31:57;141349.94;;;38.57;0.00
37298;BME280;30517;51.932;4.278;2023-02-20T01:34:38;141193.13;;;38.60;0.00
37298;BME280;30517;51.932;4.278;2023-02-20T01:37:19;141064.00;;;38.62;0.00
37298;BME280;30517;51.932;4.278;2023-02-20T01:40:00;141317.47;;;38.57;0.00
37298;BME280;30517;51.932;4.278;2023-02-20T01:42:41;141221.84;;;38.59;0.00
37298;BME280;30517;51.932;4.278;2023-02-20T01:48:03;141146.34;;;38.60;0.00
37298;BME280;30517;51.932;4.278;2023-02-20T01:50:44;141180.75;;;38.59;0.00
37298;BME280;30517;51.932;4.278;2023-02-20T01:53:27;141187.44;;;38.59;0.00
37298;BME280;30517;51.932;4.278;2023-02-20T01:56:11;141084.09;;;38.61;0.00
37298;BME280;30517;51.932;4.278;2023-02-20T01:58:52;141216.22;;;38.58;0.00
37298;BME280;30517;51.932;4.278;2023-02-20T02:01:34;141058.38;;;38.61;0.00
37298;BME280;30517;51.932;4.278;2023-02-20T02:04:15;141078.50;;;38.60;0.00
37298;BME280;30517;51.932;4.278;2023-02-20T02:06:57;140977.06;;;38.62;0.00
37298;BME280;30517;51.932;4.278;2023-02-20T02:09:45;140942.66;;;38.63;0.00
37298;BME280;30517;51.932;4.278;2023-02-20T02:12:27;140990.44;;;38.62;0.00
37298;BME280;30517;51.932;4.278;2023-02-20T02:15:14;140949.31;;;38.63;0.00
37298;BME280;30517;51.932;4.278;2023-02-20T02:18:09;140859.31;;;38.64;0.00
37298;BME280;30517;51.932;4.278;2023-02-20T02:21:13;140868.06;;;38.63;0.00
37298;BME280;30517;51.932;4.278;2023-02-20T02:33:12;140765.78;;;38.64;0.00
37298;BME280;30517;51.932;4.278;2023-02-20T02:45:18;140917.03;;;38.61;0.00
37298;BME280;30517;51.932;4.278;2023-02-20T02:48:06;140910.34;;;38.61;0.00
37298;BME280;30517;51.932;4.278;2023-02-20T02:50:50;140792.53;;;38.64;0.00
37298;BME280;30517;51.932;4.278;2023-02-20T02:53:33;140671.09;;;38.66;0.00
37298;BME280;30517;51.932;4.278;2023-02-20T02:56:14;141369.06;;;38.52;0.00
37298;BME280;30517;51.932;4.278;2023-02-20T02:59:01;140891.31;;;38.61;0.00
37298;BME280;30517;51.932;4.278;2023-02-20T03:01:46;140981.25;;;38.59;0.00
37298;BME280;30517;51.932;4.278;2023-02-20T03:04:30;140884.66;;;38.61;0.00
37298;BME280;30517;51.932;4.278;2023-02-20T03:07:13;140672.13;;;38.65;0.00
37298;BME280;30517;51.932;4.278;2023-02-20T03:09:56;140752.50;;;38.64;0.00
37298;BME280;30517;51.932;4.278;2023-02-20T03:12:41;140739.06;;;38.64;0.00
37298;BME280;30517;51.932;4.278;2023-02-20T03:15:31;140418.38;;;38.69;0.00
37298;BME280;30517;51.932;4.278;2023-02-20T03:21:10;140562.94;;;38.67;0.00
37298;BME280;30517;51.932;4.278;2023-02-20T03:23:57;140665.44;;;38.65;0.00
37298;BME280;30517;51.932;4.278;2023-02-20T03:26:40;140597.47;;;38.66;0.00
37298;BME280;30517;51.932;4.278;2023-02-20T03:29:29;140665.44;;;38.65;0.00
37298;BME280;30517;51.932;4.278;2023-02-20T03:32:13;140692.31;;;38.64;0.00
37298;BME280;30517;51.932;4.278;2023-02-20T03:35:14;140624.25;;;38.66;0.00
37298;BME280;30517;51.932;4.278;2023-02-20T03:38:15;140665.44;;;38.65;0.00
37298;BME280;30517;51.932;4.278;2023-02-20T03:41:16;140569.69;;;38.67;0.00
37298;BME280;30517;51.932;4.278;2023-02-20T03:44:17;140500.81;;;38.68;0.00
37298;BME280;30517;51.932;4.278;2023-02-20T03:47:01;140549.66;;;38.67;0.00
37298;BME280;30517;51.932;4.278;2023-02-20T03:49:43;140536.22;;;38.67;0.00
37298;BME280;30517;51.932;4.278;2023-02-20T03:52:25;140295.72;;;38.71;0.00
37298;BME280;30517;51.932;4.278;2023-02-20T03:55:06;140303.47;;;38.71;0.00
37298;BME280;30517;51.932;4.278;2023-02-20T03:57:51;140311.22;;;38.71;0.00
37298;BME280;30517;51.932;4.278;2023-02-20T04:00:38;140296.78;;;38.71;0.00
37298;BME280;30517;51.932;4.278;2023-02-20T04:03:26;140303.47;;;38.71;0.00
37298;BME280;30517;51.932;4.278;2023-02-20T04:06:10;140358.06;;;38.70;0.00
37298;BME280;30517;51.932;4.278;2023-02-20T04:09:02;140275.56;;;38.72;0.00
37298;BME280;30517;51.932;4.278;2023-02-20T04:11:49;140344.72;;;38.70;0.00
37298;BME280;30517;51.932;4.278;2023-02-20T04:14:31;140213.44;;;38.72;0.00
37298;BME280;30517;51.932;4.278;2023-02-20T04:17:15;140233.47;;;38.72;0.00
37298;BME280;30517;51.932;4.278;2023-02-20T04:20:00;140206.53;;;38.73;0.00
37298;BME280;30517;51.932;4.278;2023-02-20T04:22:43;140412.75;;;38.69;0.00
37298;BME280;30517;51.932;4.278;2023-02-20T04:25:46;140226.81;;;38.72;0.00
37298;BME280;30517;51.932;4.278;2023-02-20T04:28:30;140538.53;;;38.65;0.00
37298;BME280;30517;51.932;4.278;2023-02-20T04:31:12;140022.59;;;38.76;0.00
37298;BME280;30517;51.932;4.278;2023-02-20T04:33:54;140082.81;;;38.75;0.00
37298;BME280;30517;51.932;4.278;2023-02-20T04:36:35;140027.06;;;38.77;0.00
37298;BME280;30517;51.932;4.278;2023-02-20T04:39:16;139780.22;;;38.81;0.00
37298;BME280;30517;51.932;4.278;2023-02-20T04:41:57;139753.53;;;38.81;0.00
37298;BME280;30517;51.932;4.278;2023-02-20T04:44:38;139995.78;;;38.76;0.00
37298;BME280;30517;51.932;4.278;2023-02-20T04:47:19;140125.19;;;38.74;0.00
37298;BME280;30517;51.932;4.278;2023-02-20T04:50:00;139993.41;;;38.77;0.00
37298;BME280;30517;51.932;4.278;2023-02-20T04:52:41;140042.63;;;38.76;0.00
37298;BME280;30517;51.932;4.278;2023-02-20T04:55:22;139987.03;;;38.77;0.00
37298;BME280;30517;51.932;4.278;2023-02-20T04:58:02;139644.13;;;38.83;0.00
37298;BME280;30517;51.932;4.278;2023-02-20T05:00:43;139836.22;;;38.79;0.00
37298;BME280;30517;51.932;4.278;2023-02-20T05:03:24;139740.19;;;38.81;0.00
37298;BME280;30517;51.932;4.278;2023-02-20T05:06:05;139581.38;;;38.85;0.00
37298;BME280;30517;51.932;4.278;2023-02-20T05:08:46;139731.25;;;38.82;0.00
37298;BME280;30517;51.932;4.278;2023-02-20T05:11:26;139717.88;;;38.82;0.00
37298;BME280;30517;51.932;4.278;2023-02-20T05:14:07;139739.06;;;38.82;0.00
37298;BME280;30517;51.932;4.278;2023-02-20T05:16:48;139690.84;;;38.83;0.00
37298;BME280;30517;51.932;4.278;2023-02-20T05:19:30;140076.16;;;38.75;0.00
37298;BME280;30517;51.932;4.278;2023-02-20T05:22:11;139724.38;;;38.82;0.00
37298;BME280;30517;51.932;4.278;2023-02-20T05:24:58;139972.25;;;38.78;0.00
37298;BME280;30517;51.932;4.278;2023-02-20T05:27:39;139599.28;;;38.85;0.00
37298;BME280;30517;51.932;4.278;2023-02-20T05:30:22;140727.75;;;38.63;0.00
37298;BME280;30517;51.932;4.278;2023-02-20T05:33:03;140040.13;;;38.77;0.00
37298;BME280;30517;51.932;4.278;2023-02-20T05:35:44;139035.47;;;38.95;0.00
37298;BME280;30517;51.932;4.278;2023-02-20T05:38:25;138738.72;;;39.00;0.00
37298;BME280;30517;51.932;4.278;2023-02-20T05:41:07;138428.03;;;39.05;0.00
37298;BME280;30517;51.932;4.278;2023-02-20T05:43:48;138448.00;;;39.05;0.00
37298;BME280;30517;51.932;4.278;2023-02-20T05:46:28;138268.56;;;39.08;0.00
37298;BME280;30517;51.932;4.278;2023-02-20T05:49:10;138304.47;;;39.07;0.00
37298;BME280;30517;51.932;4.278;2023-02-20T05:51:51;138405.09;;;39.06;0.00
37298;BME280;30517;51.932;4.278;2023-02-20T05:54:32;138684.81;;;39.01;0.00
37298;BME280;30517;51.932;4.278;2023-02-20T05:57:14;138227.88;;;39.09;0.00
37298;BME280;30517;51.932;4.278;2023-02-20T05:59:54;138358.47;;;39.06;0.00
37298;BME280;30517;51.932;4.278;2023-02-20T06:02:35;138517.56;;;39.04;0.00
37298;BME280;30517;51.932;4.278;2023-02-20T06:05:16;138642.94;;;39.02;0.00
37298;BME280;30517;51.932;4.278;2023-02-20T06:07:57;138725.09;;;39.00;0.00
37298;BME280;30517;51.932;4.278;2023-02-20T06:10:38;138545.50;;;39.03;0.00
37298;BME280;30517;51.932;4.278;2023-02-20T06:13:19;138642.94;;;39.02;0.00
37298;BME280;30517;51.932;4.278;2023-02-20T06:16:00;138900.09;;;38.96;0.00
37298;BME280;30517;51.932;4.278;2023-02-20T06:18:41;138927.06;;;38.96;0.00
37298;BME280;30517;51.932;4.278;2023-02-20T06:21:23;139140.63;;;38.92;0.00
37298;BME280;30517;51.932;4.278;2023-02-20T06:24:04;138827.88;;;38.99;0.00
37298;BME280;30517;51.932;4.278;2023-02-20T06:26:45;138919.84;;;38.97;0.00
37298;BME280;30517;51.932;4.278;2023-02-20T06:29:26;139126.09;;;38.93;0.00
37298;BME280;30517;51.932;4.278;2023-02-20T06:32:08;138995.22;;;38.95;0.00
37298;BME280;30517;51.932;4.278;2023-02-20T06:34:49;139417.16;;;38.87;0.00
37298;BME280;30517;51.932;4.278;2023-02-20T06:37:30;138987.31;;;38.95;0.00
37298;BME280;30517;51.932;4.278;2023-02-20T06:40:11;139160.63;;;38.92;0.00
37298;BME280;30517;51.932;4.278;2023-02-20T06:42:52;139160.88;;;38.92;0.00
37298;BME280;30517;51.932;4.278;2023-02-20T06:45:33;139534.69;;;38.85;0.00
37298;BME280;30517;51.932;4.278;2023-02-20T06:48:13;139181.13;;;38.92;0.00
37298;BME280;30517;51.932;4.278;2023-02-20T06:50:54;139284.03;;;38.90;0.00
37298;BME280;30517;51.932;4.278;2023-02-20T06:53:36;139270.47;;;38.90;0.00
37298;BME280;30517;51.932;4.278;2023-02-20T06:56:21;139429.31;;;38.87;0.00
37298;BME280;30517;51.932;4.278;2023-02-20T06:59:04;139366.69;;;38.89;0.00
37298;BME280;30517;51.932;4.278;2023-02-20T07:01:45;139373.38;;;38.89;0.00
37298;BME280;30517;51.932;4.278;2023-02-20T07:04:26;139366.69;;;38.89;0.00
37298;BME280;30517;51.932;4.278;2023-02-20T07:07:07;139304.06;;;38.90;0.00
37298;BME280;30517;51.932;4.278;2023-02-20T07:09:48;139221.13;;;38.92;0.00
37298;BME280;30517;51.932;4.278;2023-02-20T07:12:30;139400.06;;;38.89;0.00
37298;BME280;30517;51.932;4.278;2023-02-20T07:15:11;139364.09;;;38.90;0.00
37298;BME280;30517;51.932;4.278;2023-02-20T07:17:52;139483.84;;;38.87;0.00
37298;BME280;30517;51.932;4.278;2023-02-20T07:20:33;139510.75;;;38.87;0.00
37298;BME280;30517;51.932;4.278;2023-02-20T07:23:14;139462.69;;;38.87;0.00
37298;BME280;30517;51.932;4.278;2023-02-20T07:25:55;139488.16;;;38.88;0.00
37298;BME280;30517;51.932;4.278;2023-02-20T07:28:35;139764.22;;;38.83;0.00
37298;BME280;30517;51.932;4.278;2023-02-20T07:31:16;139756.41;;;38.83;0.00
37298;BME280;30517;51.932;4.278;2023-02-20T07:33:58;139771.28;;;38.82;0.00
37298;BME280;30517;51.932;4.278;2023-02-20T07:36:40;139737.53;;;38.83;0.00
37298;BME280;30517;51.932;4.278;2023-02-20T07:39:21;139702.84;;;38.84;0.00
37298;BME280;30517;51.932;4.278;2023-02-20T07:42:02;139716.38;;;38.83;0.00
37298;BME280;30517;51.932;4.278;2023-02-20T07:44:43;139571.00;;;38.86;0.00
37298;BME280;30517;51.932;4.278;2023-02-20T07:47:27;139654.78;;;38.85;0.00
37298;BME280;30517;51.932;4.278;2023-02-20T07:50:08;139641.44;;;38.85;0.00
37298;BME280;30517;51.932;4.278;2023-02-20T07:52:49;139654.78;;;38.85;0.00
37298;BME280;30517;51.932;4.278;2023-02-20T07:55:30;139537.22;;;38.87;0.00
37298;BME280;30517;51.932;4.278;2023-02-20T07:58:11;139584.34;;;38.86;0.00
37298;BME280;30517;51.932;4.278;2023-02-20T08:00:52;139964.31;;;38.79;0.00
37298;BME280;30517;51.932;4.278;2023-02-20T08:03:33;139645.78;;;38.85;0.00
37298;BME280;30517;51.932;4.278;2023-02-20T08:06:18;139577.91;;;38.86;0.00
37298;BME280;30517;51.932;4.278;2023-02-20T08:08:59;139632.63;;;38.85;0.00
37298;BME280;30517;51.932;4.278;2023-02-20T08:11:40;139577.69;;;38.86;0.00
37298;BME280;30517;51.932;4.278;2023-02-20T08:14:21;139666.00;;;38.85;0.00
37298;BME280;30517;51.932;4.278;2023-02-20T08:17:02;140246.72;;;38.73;0.00
37298;BME280;30517;51.932;4.278;2023-02-20T08:19:42;139501.28;;;38.88;0.00
37298;BME280;30517;51.932;4.278;2023-02-20T08:22:23;139590.81;;;38.87;0.00
37298;BME280;30517;51.932;4.278;2023-02-20T08:25:04;139521.53;;;38.88;0.00
37298;BME280;30517;51.932;4.278;2023-02-20T08:27:48;140349.16;;;38.71;0.00
37298;BME280;30517;51.932;4.278;2023-02-20T08:30:29;139956.34;;;38.79;0.00
37298;BME280;30517;51.932;4.278;2023-02-20T08:33:10;140039.00;;;38.78;0.00
37298;BME280;30517;51.932;4.278;2023-02-20T08:35:51;139370.50;;;38.90;0.00
37298;BME280;30517;51.932;4.278;2023-02-20T08:38:35;139384.09;;;38.90;0.00
37298;BME280;30517;51.932;4.278;2023-02-20T08:41:16;139247.31;;;38.92;0.00
37298;BME280;30517;51.932;4.278;2023-02-20T08:43:57;139168.81;;;38.95;0.00
37298;BME280;30517;51.932;4.278;2023-02-20T08:46:45;139212.53;;;38.93;0.00
37298;BME280;30517;51.932;4.278;2023-02-20T08:49:26;142749.84;;;38.26;0.00
37298;BME280;30517;51.932;4.278;2023-02-20T08:52:07;142151.72;;;38.38;0.00
37298;BME280;30517;51.932;4.278;2023-02-20T08:54:48;140876.88;;;38.62;0.00
37298;BME280;30517;51.932;4.278;2023-02-20T08:57:29;140149.59;;;38.75;0.00
37298;BME280;30517;51.932;4.278;2023-02-20T09:00:10;139791.28;;;38.82;0.00
37298;BME280;30517;51.932;4.278;2023-02-20T09:02:53;139503.88;;;38.87;0.00
37298;BME280;30517;51.932;4.278;2023-02-20T09:05:34;139324.06;;;38.90;0.00
37298;BME280;30517;51.932;4.278;2023-02-20T09:08:16;139200.63;;;38.92;0.00
37298;BME280;30517;51.932;4.278;2023-02-20T09:10:56;139294.75;;;38.91;0.00
37298;BME280;30517;51.932;4.278;2023-02-20T09:13:42;139214.22;;;38.92;0.00
37298;BME280;30517;51.932;4.278;2023-02-20T09:16:23;139013.72;;;38.96;0.00
37298;BME280;30517;51.932;4.278;2023-02-20T09:19:04;139041.88;;;38.95;0.00
37298;BME280;30517;51.932;4.278;2023-02-20T09:21:47;139034.00;;;38.95;0.00
37298;BME280;30517;51.932;4.278;2023-02-20T09:24:27;138924.28;;;38.97;0.00
37298;BME280;30517;51.932;4.278;2023-02-20T09:27:13;139013.44;;;38.96;0.00
37298;BME280;30517;51.932;4.278;2023-02-20T09:29:53;139241.41;;;38.91;0.00
37298;BME280;30517;51.932;4.278;2023-02-20T09:32:34;138798.41;;;39.00;0.00
37298;BME280;30517;51.932;4.278;2023-02-20T09:35:22;138791.44;;;39.01;0.00
37298;BME280;30517;51.932;4.278;2023-02-20T09:38:04;138763.50;;;39.01;0.00
37298;BME280;30517;51.932;4.278;2023-02-20T09:40:49;139180.88;;;38.92;0.00
37298;BME280;30517;51.932;4.278;2023-02-20T09:43:41;138831.75;;;39.00;0.00
37298;BME280;30517;51.932;4.278;2023-02-20T09:46:25;138618.78;;;39.03;0.00
37298;BME280;30517;51.932;4.278;2023-02-20T09:49:20;138514.31;;;39.06;0.00
37298;BME280;30517;51.932;4.278;2023-02-20T09:55:05;138418.09;;;39.07;0.00
37298;BME280;30517;51.932;4.278;2023-02-20T09:57:52;138465.06;;;39.06;0.00
37298;BME280;30517;51.932;4.278;2023-02-20T10:00:36;138314.47;;;39.09;0.00
37298;BME280;30517;51.932;4.278;2023-02-20T10:03:24;138272.81;;;39.10;0.00
37298;BME280;30517;51.932;4.278;2023-02-20T10:06:15;138312.78;;;39.10;0.00
37298;BME280;30517;51.932;4.278;2023-02-20T10:08:57;138266.16;;;39.10;0.00
37298;BME280;30517;51.932;4.278;2023-02-20T10:17:44;138592.47;;;39.03;0.00
37298;BME280;30517;51.932;4.278;2023-02-20T10:26:31;138110.44;;;39.14;0.00
37298;BME280;30517;51.932;4.278;2023-02-20T10:29:17;138139.81;;;39.13;0.00
37298;BME280;30517;51.932;4.278;2023-02-20T10:32:02;138070.09;;;39.14;0.00
37298;BME280;30517;51.932;4.278;2023-02-20T10:34:50;138023.09;;;39.14;0.00
37298;BME280;30517;51.932;4.278;2023-02-20T10:37:41;138007.47;;;39.15;0.00
37298;BME280;30517;51.932;4.278;2023-02-20T10:40:38;137964.38;;;39.16;0.00
37298;BME280;30517;51.932;4.278;2023-02-20T10:43:27;137884.06;;;39.17;0.00
37298;BME280;30517;51.932;4.278;2023-02-20T10:48:59;137848.59;;;39.18;0.00
37298;BME280;30517;51.932;4.278;2023-02-20T10:51:47;137764.53;;;39.19;0.00
37298;BME280;30517;51.932;4.278;2023-02-20T10:54:37;138539.16;;;39.03;0.00
37298;BME280;30517;51.932;4.278;2023-02-20T10:57:47;137730.41;;;39.20;0.00
37298;BME280;30517;51.932;4.278;2023-02-20T11:00:30;137884.06;;;39.17;0.00
37298;BME280;30517;51.932;4.278;2023-02-20T11:03:17;137638.34;;;39.22;0.00
37298;BME280;30517;51.932;4.278;2023-02-20T11:06:01;137659.22;;;39.22;0.00
37298;BME280;30517;51.932;4.278;2023-02-20T11:08:43;137611.72;;;39.22;0.00
37298;BME280;30517;51.932;4.278;2023-02-20T11:11:27;137563.72;;;39.23;0.00
37298;BME280;30517;51.932;4.278;2023-02-20T11:17:08;137467.28;;;39.24;0.00
37298;BME280;30517;51.932;4.278;2023-02-20T11:19:53;137460.63;;;39.24;0.00
37298;BME280;30517;51.932;4.278;2023-02-20T11:22:46;137382.66;;;39.26;0.00
37298;BME280;30517;51.932;4.278;2023-02-20T11:25:32;137425.47;;;39.25;0.00
37298;BME280;30517;51.932;4.278;2023-02-20T11:28:21;137690.47;;;39.20;0.00
37298;BME280;30517;51.932;4.278;2023-02-20T11:31:05;137307.09;;;39.27;0.00
37298;BME280;30517;51.932;4.278;2023-02-20T11:33:47;137135.47;;;39.29;0.00
37298;BME280;30517;51.932;4.278;2023-02-20T11:36:44;137164.03;;;39.28;0.00
37298;BME280;30517;51.932;4.278;2023-02-20T11:39:27;137381.69;;;39.23;0.00
37298;BME280;30517;51.932;4.278;2023-02-20T11:42:17;137494.66;;;39.21;0.00
37298;BME280;30517;51.932;4.278;2023-02-20T11:45:28;137084.69;;;39.28;0.00
37298;BME280;30517;51.932;4.278;2023-02-20T11:48:10;137044.31;;;39.28;0.00
37298;BME280;30517;51.932;4.278;2023-02-20T11:50:52;136972.94;;;39.30;0.00
37298;BME280;30517;51.932;4.278;2023-02-20T11:53:33;136876.88;;;39.32;0.00
37298;BME280;30517;51.932;4.278;2023-02-20T11:56:17;136826.38;;;39.33;0.00
37298;BME280;30517;51.932;4.278;2023-02-20T11:59:37;136870.22;;;39.32;0.00
37298;BME280;30517;51.932;4.278;2023-02-20T12:02:27;136784.97;;;39.34;0.00
37298;BME280;30517;51.932;4.278;2023-02-20T12:05:18;136699.66;;;39.36;0.00
37298;BME280;30517;51.932;4.278;2023-02-20T12:07:59;136693.00;;;39.36;0.00
37298;BME280;30517;51.932;4.278;2023-02-20T12:10:47;136897.31;;;39.31;0.00
37298;BME280;30517;51.932;4.278;2023-02-20T12:13:32;136532.97;;;39.38;0.00
37298;BME280;30517;51.932;4.278;2023-02-20T12:19:27;136765.53;;;39.33;0.00
37298;BME280;30517;51.932;4.278;2023-02-20T12:22:30;136378.00;;;39.41;0.00
37298;BME280;30517;51.932;4.278;2023-02-20T12:28:35;136364.72;;;39.41;0.00
37298;BME280;30517;51.932;4.278;2023-02-20T12:31:40;136247.50;;;39.43;0.00
37298;BME280;30517;51.932;4.278;2023-02-20T12:34:47;136522.28;;;39.37;0.00
37298;BME280;30517;51.932;4.278;2023-02-20T12:40:51;136016.53;;;39.47;0.00
37298;BME280;30517;51.932;4.278;2023-02-20T12:43:46;136199.44;;;39.44;0.00
37298;BME280;30517;51.932;4.278;2023-02-20T12:46:36;135896.63;;;39.49;0.00
37298;BME280;30517;51.932;4.278;2023-02-20T12:49:41;135813.50;;;39.51;0.00
37298;BME280;30517;51.932;4.278;2023-02-20T12:52:55;135898.25;;;39.49;0.00
37298;BME280;30517;51.932;4.278;2023-02-20T13:01:33;135609.94;;;39.54;0.00
37298;BME280;30517;51.932;4.278;2023-02-20T13:04:37;135581.13;;;39.55;0.00
37298;BME280;30517;51.932;4.278;2023-02-20T13:07:36;135603.31;;;39.54;0.00
37298;BME280;30517;51.932;4.278;2023-02-20T13:10:29;135407.25;;;39.58;0.00
37298;BME280;30517;51.932;4.278;2023-02-20T13:13:12;135656.28;;;39.53;0.00
37298;BME280;30517;51.932;4.278;2023-02-20T13:15:57;135370.09;;;39.59;0.00
37298;BME280;30517;51.932;4.278;2023-02-20T13:18:52;135166.50;;;39.63;0.00
37298;BME280;30517;51.932;4.278;2023-02-20T13:21:34;135294.03;;;39.60;0.00
37298;BME280;30517;51.932;4.278;2023-02-20T13:27:06;135254.25;;;39.60;0.00
37298;BME280;30517;51.932;4.278;2023-02-20T13:30:20;135254.25;;;39.60;0.00
37298;BME280;30517;51.932;4.278;2023-02-20T13:33:16;135198.78;;;39.61;0.00
37298;BME280;30517;51.932;4.278;2023-02-20T13:35:58;135113.41;;;39.63;0.00
37298;BME280;30517;51.932;4.278;2023-02-20T13:38:38;135132.41;;;39.61;0.00
37298;BME280;30517;51.932;4.278;2023-02-20T13:41:19;134960.97;;;39.65;0.00
37298;BME280;30517;51.932;4.278;2023-02-20T13:49:58;134900.38;;;39.67;0.00
37298;BME280;30517;51.932;4.278;2023-02-20T13:52:41;134940.34;;;39.65;0.00
37298;BME280;30517;51.932;4.278;2023-02-20T13:55:25;134792.75;;;39.68;0.00
37298;BME280;30517;51.932;4.278;2023-02-20T13:58:12;134751.25;;;39.68;0.00
37298;BME280;30517;51.932;4.278;2023-02-20T14:00:54;134669.19;;;39.69;0.00
37298;BME280;30517;51.932;4.278;2023-02-20T14:03:35;134767.69;;;39.67;0.00
37298;BME280;30517;51.932;4.278;2023-02-20T14:06:17;134597.69;;;39.71;0.00
37298;BME280;30517;51.932;4.278;2023-02-20T14:09:15;134675.84;;;39.69;0.00
37298;BME280;30517;51.932;4.278;2023-02-20T14:12:11;134851.44;;;39.66;0.00
37298;BME280;30517;51.932;4.278;2023-02-20T14:14:52;134584.44;;;39.71;0.00
37298;BME280;30517;51.932;4.278;2023-02-20T14:17:34;134464.97;;;39.73;0.00
37298;BME280;30517;51.932;4.278;2023-02-20T14:20:30;134391.28;;;39.73;0.00
37298;BME280;30517;51.932;4.278;2023-02-20T14:25:54;134243.47;;;39.76;0.00
37298;BME280;30517;51.932;4.278;2023-02-20T14:28:43;134243.47;;;39.76;0.00
37298;BME280;30517;51.932;4.278;2023-02-20T14:34:13;134053.25;;;39.79;0.00
37298;BME280;30517;51.932;4.278;2023-02-20T14:40:12;134504.84;;;39.71;0.00
37298;BME280;30517;51.932;4.278;2023-02-20T14:43:00;134097.38;;;39.78;0.00
37298;BME280;30517;51.932;4.278;2023-02-20T14:45:43;134084.13;;;39.78;0.00
37298;BME280;30517;51.932;4.278;2023-02-20T14:48:31;134020.91;;;39.79;0.00
37298;BME280;30517;51.932;4.278;2023-02-20T14:51:22;133947.69;;;39.81;0.00
37298;BME280;30517;51.932;4.278;2023-02-20T14:56:54;134501.69;;;39.70;0.00
37298;BME280;30517;51.932;4.278;2023-02-20T14:59:36;134206.25;;;39.75;0.00
37298;BME280;30517;51.932;4.278;2023-02-20T15:02:26;134024.50;;;39.78;0.00
37298;BME280;30517;51.932;4.278;2023-02-20T15:05:09;133933.97;;;39.79;0.00
37298;BME280;30517;51.932;4.278;2023-02-20T15:11:06;133803.69;;;39.80;0.00
37298;BME280;30517;51.932;4.278;2023-02-20T15:13:48;134605.16;;;39.64;0.00
37298;BME280;30517;51.932;4.278;2023-02-20T15:16:31;133881.75;;;39.79;0.00
37298;BME280;30517;51.932;4.278;2023-02-20T15:22:35;136832.94;;;39.19;0.00
37298;BME280;30517;51.932;4.278;2023-02-20T15:25:29;133497.38;;;39.86;0.00
37298;BME280;30517;51.932;4.278;2023-02-20T15:33:52;133344.47;;;39.88;0.00
37298;BME280;30517;51.932;4.278;2023-02-20T15:36:33;133328.50;;;39.89;0.00
37298;BME280;30517;51.932;4.278;2023-02-20T15:39:15;133384.19;;;39.88;0.00
37298;BME280;30517;51.932;4.278;2023-02-20T15:41:56;133355.00;;;39.89;0.00
37298;BME280;30517;51.932;4.278;2023-02-20T15:44:37;133673.78;;;39.83;0.00
37298;BME280;30517;51.932;4.278;2023-02-20T15:47:17;133330.53;;;39.90;0.00
37298;BME280;30517;51.932;4.278;2023-02-20T15:49:58;133231.38;;;39.92;0.00
37298;BME280;30517;51.932;4.278;2023-02-20T15:52:39;133397.44;;;39.88;0.00
37298;BME280;30517;51.932;4.278;2023-02-20T15:55:21;133142.53;;;39.93;0.00
37298;BME280;30517;51.932;4.278;2023-02-20T15:58:09;133226.63;;;39.92;0.00
37298;BME280;30517;51.932;4.278;2023-02-20T16:00:54;133177.50;;;39.93;0.00
37298;BME280;30517;51.932;4.278;2023-02-20T16:03:35;133085.88;;;39.94;0.00